Time;durP1;ratioP1;P1;durP2;ratioP2;P2;SDS_P1;SDS_P2;PMS_P1;PMS_P2;Temp;Humidity;BMP_temperature;BMP_pressure;BME280_temperature;BME280_humidity;BME280_pressure;Samples;Min_cycle;Max_cycle;Signal;HPM_P1;HPM_P2
2022/05/03 00:00:06;;;;;;;;;;;;;;;16.74;54.99;101743.97;1032597;28;596;-64
2022/05/03 00:00:56;;;;;;;;;;;;;;;16.73;54.70;101745.81;1032761;28;678;-63
2022/05/03 00:01:47;;;;;;;;;;;;;;;16.73;54.86;101740.41;1032052;28;690;-63
2022/05/03 00:02:38;;;;;;;;;;;;;;;16.73;55.17;101745.81;1028828;28;674;-64
2022/05/03 00:03:28;;;;;;;;;;;;;;;16.74;54.95;101746.66;1028633;28;1617;-63
2022/05/03 00:04:19;;;;;;;;;;;;;;;16.72;54.64;101744.09;1031895;28;737;-63
2022/05/03 00:05:09;;;;;;;;;;;;;;;16.72;54.63;101741.38;1032720;28;607;-63
2022/05/03 00:06:00;;;;;;;;;;;;;;;16.71;55.12;101739.66;1032596;28;663;-63
2022/05/03 00:06:50;;;;;;;;;;;;;;;16.70;54.51;101735.25;1032628;28;624;-63
2022/05/03 00:07:40;;;;;;;;;;;;;;;16.71;54.65;101736.97;1029435;28;694;-65
2022/05/03 00:08:31;;;;;;;;;;;;;;;16.72;54.68;101744.09;1028169;28;627;-65
2022/05/03 00:09:21;;;;;;;;;;;;;;;16.73;54.04;101735.03;1028269;28;659;-65
2022/05/03 00:10:12;;;;;;;;;;;;;;;16.72;54.50;101738.69;1027742;28;662;-65
2022/05/03 00:11:02;;;;;;;;;;;;;;;16.70;55.06;101737.94;1028336;28;635;-65
2022/05/03 00:11:52;;;;;;;;;;;;;;;16.71;54.81;101741.50;1027942;28;714;-67
2022/05/03 00:12:43;;;;;;;;;;;;;;;16.69;54.67;101741.63;1029302;28;626;-65
2022/05/03 00:13:33;;;;;;;;;;;;;;;16.70;54.43;101747.84;1028721;28;663;-65
2022/05/03 00:14:24;;;;;;;;;;;;;;;16.67;54.44;101741.72;1028183;28;874;-66
2022/05/03 00:15:16;;;;;;;;;;;;;;;16.68;54.54;101742.59;1032608;28;706;-66
2022/05/03 00:16:06;;;;;;;;;;;;;;;16.67;54.47;101744.44;1032606;28;634;-65
2022/05/03 00:16:56;;;;;;;;;;;;;;;16.68;54.86;101742.59;1032067;28;569;-65
2022/05/03 00:17:47;;;;;;;;;;;;;;;16.67;54.88;101735.50;1032597;28;626;-65
2022/05/03 00:18:37;;;;;;;;;;;;;;;16.68;54.71;101739.91;1032551;28;666;-65
2022/05/03 00:19:28;;;;;;;;;;;;;;;16.67;54.92;101739.03;1032487;28;721;-66
2022/05/03 00:20:18;;;;;;;;;;;;;;;16.68;54.78;101739.91;1029382;28;631;-66
2022/05/03 00:21:08;;;;;;;;;;;;;;;16.67;54.40;101732.81;1028318;28;646;-66
2022/05/03 00:21:59;;;;;;;;;;;;;;;16.65;54.83;101737.47;1028353;28;721;-66
2022/05/03 00:22:49;;;;;;;;;;;;;;;16.64;54.31;101741.13;1029435;28;646;-67
2022/05/03 00:23:40;;;;;;;;;;;;;;;16.64;54.44;101733.06;1033285;28;1898;-66
2022/05/03 00:24:30;;;;;;;;;;;;;;;16.64;54.68;101735.75;1033728;28;689;-66
2022/05/03 00:25:21;;;;;;;;;;;;;;;16.63;54.88;101739.41;1036776;28;681;-67
2022/05/03 00:26:11;;;;;;;;;;;;;;;16.64;54.93;101741.13;1036026;28;634;-66
2022/05/03 00:27:01;;;;;;;;;;;;;;;16.65;54.60;101740.16;1032897;28;753;-66
2022/05/03 00:27:52;;;;;;;;;;;;;;;16.66;54.41;101739.16;1031929;28;702;-66
2022/05/03 00:28:42;;;;;;;;;;;;;;;16.64;54.77;101730.38;1037376;28;713;-66
2022/05/03 00:29:33;;;;;;;;;;;;;;;16.65;54.27;101732.09;1036211;28;646;-67
2022/05/03 00:30:23;;;;;;;;;;;;;;;16.64;54.23;101743.81;1032788;28;705;-66
2022/05/03 00:31:14;;;;;;;;;;;;;;;16.62;54.53;101743.06;1033102;28;778;-66
2022/05/03 00:32:04;;;;;;;;;;;;;;;16.63;54.68;101740.28;1034255;28;634;-66
2022/05/03 00:32:54;;;;;;;;;;;;;;;16.64;54.47;101738.44;1035233;28;670;-66
2022/05/03 00:33:45;;;;;;;;;;;;;;;16.63;54.40;101740.28;1035110;28;666;-66
2022/05/03 00:34:35;;;;;;;;;;;;;;;16.66;54.51;101739.16;1038066;28;792;-67
2022/05/03 00:35:26;;;;;;;;;;;;;;;16.64;54.27;101742.00;1035928;28;756;-66
2022/05/03 00:36:16;;;;;;;;;;;;;;;16.64;54.40;101743.81;1035452;28;673;-67
2022/05/03 00:37:07;;;;;;;;;;;;;;;16.63;54.05;101742.97;1033948;28;623;-66
2022/05/03 00:37:57;;;;;;;;;;;;;;;16.63;54.30;101740.28;1032933;28;697;-66
2022/05/03 00:38:48;;;;;;;;;;;;;;;16.63;54.37;101737.59;1033989;28;729;-67
2022/05/03 00:39:38;;;;;;;;;;;;;;;16.62;54.43;101737.66;1033794;28;662;-66
2022/05/03 00:40:28;;;;;;;;;;;;;;;16.63;54.12;101742.09;1033757;28;1113;-66
2022/05/03 00:41:19;;;;;;;;;;;;;;;16.59;54.19;101741.44;1031965;28;662;-66
2022/05/03 00:42:09;;;;;;;;;;;;;;;16.59;54.42;101746.81;1037483;28;678;-66
2022/05/03 00:43:00;;;;;;;;;;;;;;;16.60;54.19;101753.06;1036287;28;753;-66
2022/05/03 00:43:50;;;;;;;;;;;;;;;16.59;54.47;101738.75;1032541;28;1911;-66
2022/05/03 00:44:56;;;;;;;;;;;;;;;16.59;54.39;101743.28;1033318;28;702;-66
2022/05/03 00:45:46;;;;;;;;;;;;;;;16.56;54.24;101747.06;1028252;28;690;-66
2022/05/03 00:46:36;;;;;;;;;;;;;;;16.57;54.34;101747.91;1024862;29;650;-66
2022/05/03 00:47:27;;;;;;;;;;;;;;;16.56;54.21;101749.75;1025365;28;630;-66
2022/05/03 00:48:17;;;;;;;;;;;;;;;16.56;54.21;101740.81;1029004;28;682;-66
2022/05/03 00:49:08;;;;;;;;;;;;;;;16.57;54.47;101742.53;1029658;28;623;-66
2022/05/03 00:49:58;;;;;;;;;;;;;;;16.54;54.49;101737.38;1033245;28;646;-66
2022/05/03 00:50:49;;;;;;;;;;;;;;;16.56;54.44;101748.88;1034202;28;1202;-66
2022/05/03 00:51:39;;;;;;;;;;;;;;;16.53;54.10;101744.59;1032132;28;791;-66
2022/05/03 00:52:29;;;;;;;;;;;;;;;16.53;54.35;101744.59;1032800;28;1609;-66
2022/05/03 00:53:20;;;;;;;;;;;;;;;16.53;54.24;101743.72;1033716;28;619;-66
2022/05/03 00:54:10;;;;;;;;;;;;;;;16.51;54.16;101746.53;1033464;28;667;-68
2022/05/03 00:55:01;;;;;;;;;;;;;;;16.50;54.39;101736.75;1033674;28;635;-66
2022/05/03 00:55:51;;;;;;;;;;;;;;;16.50;54.26;101752.03;1033638;28;685;-66
2022/05/03 00:56:42;;;;;;;;;;;;;;;16.50;54.27;101744.81;1033629;28;724;-68
2022/05/03 00:57:32;;;;;;;;;;;;;;;16.50;54.13;101749.34;1037352;28;635;-70
2022/05/03 00:58:22;;;;;;;;;;;;;;;16.49;54.11;101739.53;1032282;28;654;-70
2022/05/03 00:59:13;;;;;;;;;;;;;;;16.50;54.29;101739.44;1028198;28;622;-68
2022/05/03 01:00:05;;;;;;;;;;;;;;;16.50;54.27;101738.56;1035846;28;634;-68
2022/05/03 01:00:55;;;;;;;;;;;;;;;16.51;53.89;101732.22;1036247;28;709;-69
2022/05/03 01:01:46;;;;;;;;;;;;;;;16.50;54.06;101738.56;1032964;28;646;-69
2022/05/03 01:02:36;;;;;;;;;;;;;;;16.48;54.16;101736.00;1032945;28;698;-69
2022/05/03 01:03:27;;;;;;;;;;;;;;;16.48;54.00;101735.16;1033547;28;689;-69
2022/05/03 01:04:17;;;;;;;;;;;;;;;16.51;53.83;101729.53;1037067;28;1640;-69
2022/05/03 01:05:09;;;;;;;;;;;;;;;16.51;54.10;101729.53;1032840;28;665;-69
2022/05/03 01:06:00;;;;;;;;;;;;;;;16.51;53.80;101740.28;1028980;28;694;-69
2022/05/03 01:06:50;;;;;;;;;;;;;;;16.48;54.26;101733.31;1029431;28;678;-69
2022/05/03 01:07:41;;;;;;;;;;;;;;;16.45;54.04;101732.69;1029017;28;556;-67
2022/05/03 01:08:31;;;;;;;;;;;;;;;16.44;53.88;101731.84;1028913;28;760;-68
2022/05/03 01:09:21;;;;;;;;;;;;;;;16.42;54.07;101735.63;1028937;28;662;-69
2022/05/03 01:10:12;;;;;;;;;;;;;;;16.43;53.97;101731.97;1028963;28;615;-69
2022/05/03 01:11:02;;;;;;;;;;;;;;;16.44;54.05;101736.38;1029629;28;623;-69
2022/05/03 01:11:53;;;;;;;;;;;;;;;16.41;54.12;101736.59;1029011;28;635;-68
2022/05/03 01:12:43;;;;;;;;;;;;;;;16.40;54.27;101737.56;1029002;28;626;-69
2022/05/03 01:13:34;;;;;;;;;;;;;;;16.40;54.12;101732.19;1029017;28;686;-69
2022/05/03 01:14:24;;;;;;;;;;;;;;;16.38;54.22;101732.28;1029001;28;642;-69
2022/05/03 01:15:14;;;;;;;;;;;;;;;16.38;54.18;101734.13;1032561;28;1553;-69
2022/05/03 01:16:05;;;;;;;;;;;;;;;16.40;53.95;101733.03;1032970;28;618;-69
2022/05/03 01:16:55;;;;;;;;;;;;;;;16.38;54.05;101726.06;1033097;28;737;-69
2022/05/03 01:17:48;;;;;;;;;;;;;;;16.40;53.91;101733.03;1032395;28;639;-66
2022/05/03 01:18:38;;;;;;;;;;;;;;;16.39;54.22;101730.47;1033009;28;642;-66
2022/05/03 01:19:29;;;;;;;;;;;;;;;16.38;53.86;101723.38;1032317;28;631;-66
2022/05/03 01:20:19;;;;;;;;;;;;;;;16.36;53.99;101730.69;1032599;28;635;-65
2022/05/03 01:21:11;;;;;;;;;;;;;;;16.35;53.82;101731.66;1032436;28;627;-66
2022/05/03 01:22:02;;;;;;;;;;;;;;;16.33;53.96;101735.31;1032505;28;638;-67
2022/05/03 01:22:52;;;;;;;;;;;;;;;16.34;54.02;101725.41;1029292;28;646;-66
2022/05/03 01:23:44;;;;;;;;;;;;;;;16.35;53.95;101729.84;1027973;28;1891;-66
2022/05/03 01:24:34;;;;;;;;;;;;;;;16.36;53.88;101733.38;1031336;28;1605;-66
2022/05/03 01:25:24;;;;;;;;;;;;;;;16.35;54.14;101728.97;1031446;28;636;-66
2022/05/03 01:26:15;;;;;;;;;;;;;;;16.33;53.94;101726.41;1033700;28;610;-66
2022/05/03 01:27:05;;;;;;;;;;;;;;;16.36;54.04;101736.06;1033630;28;725;-66
2022/05/03 01:27:56;;;;;;;;;;;;;;;16.34;54.00;101733.50;1033025;28;821;-66
2022/05/03 01:28:46;;;;;;;;;;;;;;;16.34;53.82;101730.81;1034330;28;701;-66
2022/05/03 01:29:37;;;;;;;;;;;;;;;16.30;53.48;101727.47;1037883;28;643;-66
2022/05/03 01:30:27;;;;;;;;;;;;;;;16.29;53.88;101736.56;1036864;28;639;-66
2022/05/03 01:31:17;;;;;;;;;;;;;;;16.28;53.82;101729.44;1032846;28;651;-68
2022/05/03 01:32:08;;;;;;;;;;;;;;;16.28;53.86;101728.59;1034301;28;686;-65
2022/05/03 01:32:58;;;;;;;;;;;;;;;16.26;53.91;101728.72;1033190;28;674;-65
2022/05/03 01:33:49;;;;;;;;;;;;;;;16.25;53.92;101721.59;1034191;28;710;-65
2022/05/03 01:34:39;;;;;;;;;;;;;;;16.27;54.05;101721.50;1034298;28;689;-65
2022/05/03 01:35:30;;;;;;;;;;;;;;;16.26;53.78;101720.63;1033812;28;675;-66
2022/05/03 01:36:20;;;;;;;;;;;;;;;16.27;53.78;101725.03;1033684;28;627;-65
2022/05/03 01:37:10;;;;;;;;;;;;;;;16.27;53.80;101721.50;1034344;28;627;-65
2022/05/03 01:38:01;;;;;;;;;;;;;;;16.24;53.40;101722.56;1034276;28;804;-66
2022/05/03 01:38:51;;;;;;;;;;;;;;;16.24;53.87;101717.19;1033866;28;678;-65
2022/05/03 01:39:42;;;;;;;;;;;;;;;16.24;53.80;101722.56;1034197;28;694;-65
2022/05/03 01:40:32;;;;;;;;;;;;;;;16.22;53.91;101711.06;1034209;28;1135;-66
2022/05/03 01:41:23;;;;;;;;;;;;;;;16.22;53.91;101727.22;1034187;28;631;-65
2022/05/03 01:42:13;;;;;;;;;;;;;;;16.22;53.83;101718.28;1034176;28;930;-65
2022/05/03 01:43:04;;;;;;;;;;;;;;;16.21;53.63;101722.81;1037958;28;673;-66
2022/05/03 01:43:54;;;;;;;;;;;;;;;16.21;53.80;101720.13;1037785;28;1973;-65
2022/05/03 01:44:44;;;;;;;;;;;;;;;16.20;53.71;101723.78;1033317;28;1682;-66
2022/05/03 01:45:35;;;;;;;;;;;;;;;16.19;53.88;101724.75;1039221;28;745;-66
2022/05/03 01:46:25;;;;;;;;;;;;;;;16.18;53.79;101712.28;1038256;28;697;-66
2022/05/03 01:47:16;;;;;;;;;;;;;;;16.18;53.93;101720.34;1034845;28;611;-65
2022/05/03 01:48:06;;;;;;;;;;;;;;;16.18;53.56;101716.78;1038329;28;812;-65
2022/05/03 01:50:18;;;;;;;;;;;;;;;16.17;53.93;101728.50;1033841;28;658;-66
2022/05/03 01:51:09;;;;;;;;;;;;;;;16.14;54.01;101726.91;1030776;28;689;-66
2022/05/03 01:51:59;;;;;;;;;;;;;;;16.13;54.25;101725.19;1030269;28;634;-66
2022/05/03 01:52:50;;;;;;;;;;;;;;;16.14;54.04;101726.03;1030757;28;659;-66
2022/05/03 01:53:41;;;;;;;;;;;;;;;16.12;53.74;101723.47;1030269;28;706;-66
2022/05/03 01:54:31;;;;;;;;;;;;;;;16.13;53.89;101727.88;1030833;28;634;-66
2022/05/03 01:55:21;;;;;;;;;;;;;;;16.13;53.82;101721.63;1030732;28;709;-65
2022/05/03 01:56:12;;;;;;;;;;;;;;;16.14;53.78;101721.53;1030863;28;670;-66
2022/05/03 01:57:02;;;;;;;;;;;;;;;16.14;53.79;101715.28;1029500;28;674;-66
2022/05/03 01:57:53;;;;;;;;;;;;;;;16.13;53.50;101714.44;1026444;28;702;-66
2022/05/03 01:58:43;;;;;;;;;;;;;;;16.12;53.86;101718.09;1025279;29;698;-65
2022/05/03 01:59:34;;;;;;;;;;;;;;;16.13;53.90;101714.44;1025379;29;702;-65
2022/05/03 02:00:24;;;;;;;;;;;;;;;16.13;53.41;101719.81;1029673;28;667;-66
2022/05/03 02:01:14;;;;;;;;;;;;;;;16.11;53.43;101708.34;1030571;28;669;-65
2022/05/03 02:02:05;;;;;;;;;;;;;;;16.12;53.74;101712.72;1030792;28;768;-65
2022/05/03 02:02:55;;;;;;;;;;;;;;;16.09;53.58;101726.41;1028441;28;655;-66
2022/05/03 02:03:46;;;;;;;;;;;;;;;16.10;53.71;101720.06;1026278;28;1890;-66
2022/05/03 02:04:36;;;;;;;;;;;;;;;16.08;53.85;101722.00;1029949;28;646;-67
2022/05/03 02:05:26;;;;;;;;;;;;;;;16.11;54.09;101720.94;1030238;28;699;-70
2022/05/03 02:06:17;;;;;;;;;;;;;;;16.09;53.73;101728.25;1032956;28;1688;-69
2022/05/03 02:07:07;;;;;;;;;;;;;;;16.07;54.03;101724.81;1034167;28;615;-69
2022/05/03 02:07:58;;;;;;;;;;;;;;;16.05;53.79;101721.38;1033184;28;725;-70
2022/05/03 02:08:48;;;;;;;;;;;;;;;16.07;53.74;101716.75;1034171;28;669;-69
2022/05/03 02:09:39;;;;;;;;;;;;;;;16.07;53.92;101731.03;1034174;28;654;-67
2022/05/03 02:10:29;;;;;;;;;;;;;;;16.07;53.73;101724.81;1034147;28;861;-67
2022/05/03 02:11:19;;;;;;;;;;;;;;;16.04;53.62;101723.19;1037817;28;669;-66
2022/05/03 02:12:10;;;;;;;;;;;;;;;16.04;53.72;101725.03;1032736;28;626;-67
2022/05/03 02:13:00;;;;;;;;;;;;;;;16.04;53.91;101730.41;1028932;28;623;-67
2022/05/03 02:15:00;;;;;;;;;;;;;;;16.02;53.88;101718.91;1032472;28;647;-66
2022/05/03 02:15:51;;;;;;;;;;;;;;;16.02;53.98;101717.06;1034192;28;698;-66
2022/05/03 02:16:41;;;;;;;;;;;;;;;16.03;53.67;101720.63;1034212;28;681;-68
2022/05/03 02:17:31;;;;;;;;;;;;;;;16.00;53.55;101716.31;1034167;28;681;-67
2022/05/03 02:18:25;;;;;;;;;;;;;;;16.01;53.67;101723.41;1034100;28;686;-67
2022/05/03 02:19:15;;;;;;;;;;;;;;;16.01;53.89;101723.41;1034089;28;674;-66
2022/05/03 02:20:06;;;;;;;;;;;;;;;16.01;53.62;101723.41;1034128;28;662;-66
2022/05/03 02:20:56;;;;;;;;;;;;;;;15.99;53.51;101722.66;1037875;28;685;-66
2022/05/03 02:21:46;;;;;;;;;;;;;;;15.98;53.71;101723.63;1036732;28;623;-66
2022/05/03 02:22:37;;;;;;;;;;;;;;;15.96;53.79;101722.88;1032921;28;1613;-65
2022/05/03 02:23:27;;;;;;;;;;;;;;;15.97;53.84;101724.59;1034096;28;618;-66
2022/05/03 02:24:18;;;;;;;;;;;;;;;15.96;53.83;101725.56;1034078;28;664;-66
2022/05/03 02:25:08;;;;;;;;;;;;;;;15.96;53.23;101720.19;1034160;28;750;-66
2022/05/03 02:25:59;;;;;;;;;;;;;;;15.97;53.90;101725.47;1037774;28;693;-65
2022/05/03 02:26:49;;;;;;;;;;;;;;;15.98;53.73;101726.31;1036678;28;702;-67
2022/05/03 02:27:39;;;;;;;;;;;;;;;15.95;53.43;101722.03;1033154;28;682;-67
2022/05/03 02:28:30;;;;;;;;;;;;;;;15.96;53.57;101722.88;1037837;28;716;-67
2022/05/03 02:29:20;;;;;;;;;;;;;;;15.95;53.70;101719.34;1036791;28;713;-65
2022/05/03 02:30:11;;;;;;;;;;;;;;;15.95;53.41;101721.16;1033125;28;713;-65
2022/05/03 02:31:01;;;;;;;;;;;;;;;15.96;53.21;101718.38;1034044;28;638;-65
2022/05/03 02:31:52;;;;;;;;;;;;;;;15.94;53.65;101720.31;1034093;28;685;-66
2022/05/03 02:32:42;;;;;;;;;;;;;;;15.92;53.36;101716.91;1034094;28;615;-65
2022/05/03 02:33:33;;;;;;;;;;;;;;;15.92;53.67;101710.66;1034005;28;690;-65
2022/05/03 02:34:23;;;;;;;;;;;;;;;15.92;53.61;101718.72;1034116;28;610;-65
2022/05/03 02:35:13;;;;;;;;;;;;;;;15.91;53.40;101719.69;1034062;28;744;-65
2022/05/03 02:36:04;;;;;;;;;;;;;;;15.90;53.34;101716.16;1034060;28;627;-65
2022/05/03 02:36:55;;;;;;;;;;;;;;;15.90;53.48;101715.28;1033262;28;670;-66
2022/05/03 02:37:45;;;;;;;;;;;;;;;15.91;53.50;101722.38;1033996;28;630;-66
2022/05/03 02:38:36;;;;;;;;;;;;;;;15.90;53.64;101718.84;1037906;28;666;-65
2022/05/03 02:39:26;;;;;;;;;;;;;;;15.90;53.50;101723.34;1036640;28;639;-65
2022/05/03 02:40:17;;;;;;;;;;;;;;;15.88;53.56;101715.41;1032611;28;690;-65
2022/05/03 02:41:07;;;;;;;;;;;;;;;15.89;53.33;101710.88;1034073;28;752;-65
2022/05/03 02:41:58;;;;;;;;;;;;;;;15.90;53.38;101712.59;1032379;28;678;-65
2022/05/03 02:42:48;;;;;;;;;;;;;;;15.89;53.54;101724.34;1033840;28;1679;-65
2022/05/03 02:43:38;;;;;;;;;;;;;;;15.86;53.70;101711.97;1032890;28;1914;-65
2022/05/03 02:44:30;;;;;;;;;;;;;;;15.88;53.59;101717.22;1032985;28;635;-65
2022/05/03 02:45:20;;;;;;;;;;;;;;;15.87;53.74;101724.44;1025727;28;631;-65
2022/05/03 02:46:10;;;;;;;;;;;;;;;15.86;53.70;101716.47;1025662;28;622;-65
2022/05/03 02:47:01;;;;;;;;;;;;;;;15.86;53.79;101716.47;1029825;28;769;-65
2022/05/03 02:47:51;;;;;;;;;;;;;;;15.85;53.52;101717.44;1029983;28;635;-65
2022/05/03 02:48:42;;;;;;;;;;;;;;;15.84;53.37;101707.66;1029918;28;682;-65
2022/05/03 02:49:32;;;;;;;;;;;;;;;15.83;53.25;101711.31;1030071;28;583;-65
2022/05/03 02:50:23;;;;;;;;;;;;;;;15.83;53.62;101708.63;1029987;28;666;-65
2022/05/03 02:51:13;;;;;;;;;;;;;;;15.84;53.70;101713.03;1029489;28;843;-65
2022/05/03 02:52:03;;;;;;;;;;;;;;;15.82;53.41;101717.66;1030562;28;745;-65
2022/05/03 02:52:54;;;;;;;;;;;;;;;15.81;53.64;101710.56;1028114;28;624;-66
2022/05/03 02:53:44;;;;;;;;;;;;;;;15.83;53.39;101706.81;1026290;28;697;-65
2022/05/03 02:54:35;;;;;;;;;;;;;;;15.83;53.24;101708.63;1025179;29;659;-65
2022/05/03 02:55:25;;;;;;;;;;;;;;;15.80;53.79;101711.53;1029707;28;703;-65
2022/05/03 02:56:16;;;;;;;;;;;;;;;15.80;53.29;101706.16;1031386;28;706;-65
2022/05/03 02:57:06;;;;;;;;;;;;;;;15.78;53.53;101698.22;1034382;28;646;-65
2022/05/03 02:57:56;;;;;;;;;;;;;;;15.78;53.59;101705.41;1034105;28;658;-65
2022/05/03 02:58:47;;;;;;;;;;;;;;;15.78;53.86;101702.72;1034398;28;638;-66
2022/05/03 03:01:56;;;;;;;;;;;;;;;15.77;53.57;101709.06;1028936;28;646;-72
2022/05/03 03:02:47;;;;;;;;;;;;;;;15.78;53.64;101708.09;1030672;28;678;-71
2022/05/03 03:03:38;;;;;;;;;;;;;;;15.75;53.17;101711.91;1025606;28;1890;-68
2022/05/03 03:04:28;;;;;;;;;;;;;;;15.75;53.22;101706.53;1028556;28;663;-68
2022/05/03 03:05:19;;;;;;;;;;;;;;;15.76;53.36;101712.75;1032952;28;673;-69
2022/05/03 03:06:10;;;;;;;;;;;;;;;15.76;53.33;101708.25;1024623;29;675;-69
2022/05/03 03:07:00;;;;;;;;;;;;;;;15.75;53.30;101703.84;1025813;28;620;-69
2022/05/03 03:07:51;;;;;;;;;;;;;;;15.75;53.51;101708.34;1029783;28;627;-68
2022/05/03 03:08:41;;;;;;;;;;;;;;;15.74;53.49;101703.94;1030076;28;570;-68
2022/05/03 03:09:31;;;;;;;;;;;;;;;15.73;53.78;101697.72;1029872;28;631;-68
2022/05/03 03:10:22;;;;;;;;;;;;;;;15.72;53.48;101697.81;1033500;28;638;-68
2022/05/03 03:11:12;;;;;;;;;;;;;;;15.71;53.44;101702.34;1033066;28;682;-68
2022/05/03 03:12:03;;;;;;;;;;;;;;;15.71;53.13;101704.16;1028763;28;766;-69
2022/05/03 03:12:54;;;;;;;;;;;;;;;15.71;53.44;101707.72;1029898;28;647;-69
2022/05/03 03:13:44;;;;;;;;;;;;;;;15.72;53.26;101711.25;1028688;28;657;-68
2022/05/03 03:14:35;;;;;;;;;;;;;;;15.72;53.24;101705.88;1029350;28;721;-68
2022/05/03 03:15:25;;;;;;;;;;;;;;;15.70;53.12;101705.13;1028469;28;612;-68
2022/05/03 03:16:16;;;;;;;;;;;;;;;15.69;53.70;101701.59;1029047;28;718;-69
2022/05/03 03:17:06;;;;;;;;;;;;;;;15.69;53.21;101704.28;1029878;28;682;-68
2022/05/03 03:18:00;;;;;;;;;;;;;;;15.68;53.37;101701.69;1029780;28;658;-68
2022/05/03 03:18:50;;;;;;;;;;;;;;;15.68;53.37;101707.06;1029121;28;631;-69
2022/05/03 03:19:40;;;;;;;;;;;;;;;15.66;53.61;101709.88;1029733;28;737;-70
2022/05/03 03:20:31;;;;;;;;;;;;;;;15.67;53.25;101700.84;1028795;28;701;-70
2022/05/03 03:21:21;;;;;;;;;;;;;;;15.67;53.25;101705.34;1029914;28;697;-71
2022/05/03 03:22:12;;;;;;;;;;;;;;;15.66;53.10;101704.50;1029756;28;651;-70
2022/05/03 03:23:02;;;;;;;;;;;;;;;15.66;53.37;101704.50;1029954;28;846;-70
2022/05/03 03:23:53;;;;;;;;;;;;;;;15.66;53.01;101701.81;1029799;28;1953;-70
2022/05/03 03:24:43;;;;;;;;;;;;;;;15.66;53.34;101703.63;1033617;28;619;-70
2022/05/03 03:25:34;;;;;;;;;;;;;;;15.66;53.12;101698.25;1032527;28;721;-69
2022/05/03 03:26:26;;;;;;;;;;;;;;;15.66;53.27;101709.00;1028584;28;644;-70
2022/05/03 03:27:16;;;;;;;;;;;;;;;15.67;53.00;101706.22;1028774;28;726;-70
2022/05/03 03:28:07;;;;;;;;;;;;;;;15.66;53.22;101706.31;1029362;28;636;-70
2022/05/03 03:28:57;;;;;;;;;;;;;;;15.66;53.18;101703.63;1029233;28;623;-68
2022/05/03 03:29:48;;;;;;;;;;;;;;;15.67;53.38;101705.34;1029444;28;623;-68
2022/05/03 03:30:38;;;;;;;;;;;;;;;15.66;53.17;101703.63;1029764;28;735;-70
2022/05/03 03:31:29;;;;;;;;;;;;;;;15.63;53.38;101708.25;1029191;28;647;-68
2022/05/03 03:32:19;;;;;;;;;;;;;;;15.66;53.46;101703.63;1029218;28;873;-67
2022/05/03 03:33:09;;;;;;;;;;;;;;;15.64;53.39;101706.44;1029337;28;647;-67
2022/05/03 03:34:00;;;;;;;;;;;;;;;15.62;53.40;101706.53;1028705;28;643;-68
2022/05/03 03:34:50;;;;;;;;;;;;;;;15.64;53.52;101703.75;1028849;28;722;-69
2022/05/03 03:35:41;;;;;;;;;;;;;;;15.63;53.31;101704.72;1029299;28;624;-69
2022/05/03 03:36:31;;;;;;;;;;;;;;;15.64;53.08;101701.06;1029321;28;686;-69
2022/05/03 03:37:22;;;;;;;;;;;;;;;15.63;52.88;101702.88;1029207;28;658;-69
2022/05/03 03:38:12;;;;;;;;;;;;;;;15.62;53.08;101701.16;1029823;28;725;-69
2022/05/03 03:39:02;;;;;;;;;;;;;;;15.62;53.18;101703.00;1029818;28;686;-69
2022/05/03 03:39:53;;;;;;;;;;;;;;;15.61;53.26;101701.28;1029452;28;631;-70
2022/05/03 03:40:45;;;;;;;;;;;;;;;15.60;52.86;101703.09;1030090;28;1293;-69
2022/05/03 03:41:36;;;;;;;;;;;;;;;15.60;53.20;101705.78;1028849;28;682;-69
2022/05/03 03:42:26;;;;;;;;;;;;;;;15.60;52.81;101705.78;1033667;28;682;-67
2022/05/03 03:43:16;;;;;;;;;;;;;;;15.60;53.31;101702.25;1032779;28;697;-69
2022/05/03 03:44:07;;;;;;;;;;;;;;;15.59;53.01;101708.59;1034183;28;1993;-69
2022/05/03 03:44:57;;;;;;;;;;;;;;;15.59;53.29;101700.53;1030189;28;677;-68
2022/05/03 03:45:48;;;;;;;;;;;;;;;15.59;52.91;101709.44;1028397;28;1673;-69
2022/05/03 03:46:38;;;;;;;;;;;;;;;15.58;53.11;101701.53;1032563;28;635;-68
2022/05/03 03:47:29;;;;;;;;;;;;;;;15.57;53.29;101700.66;1029242;28;638;-69
2022/05/03 03:48:20;;;;;;;;;;;;;;;15.58;52.83;101702.38;1028522;28;666;-69
2022/05/03 03:49:10;;;;;;;;;;;;;;;15.58;53.01;101706.91;1032522;28;702;-69
2022/05/03 03:50:01;;;;;;;;;;;;;;;15.58;52.97;101694.31;1032748;28;643;-69
2022/05/03 03:50:51;;;;;;;;;;;;;;;15.57;53.03;101710.56;1033410;28;1202;-69
2022/05/03 03:51:41;;;;;;;;;;;;;;;15.57;52.87;101700.66;1032934;28;596;-69
2022/05/03 03:52:32;;;;;;;;;;;;;;;15.55;53.08;101697.22;1032781;28;713;-69
2022/05/03 03:53:22;;;;;;;;;;;;;;;15.55;53.25;101701.72;1032883;28;643;-70
2022/05/03 03:54:13;;;;;;;;;;;;;;;15.55;52.89;101704.41;1032563;28;709;-69
2022/05/03 03:55:03;;;;;;;;;;;;;;;15.54;53.36;101705.34;1034589;28;627;-68
2022/05/03 03:55:54;;;;;;;;;;;;;;;15.54;52.99;101703.53;1034933;28;667;-67
2022/05/03 03:56:44;;;;;;;;;;;;;;;15.53;53.11;101699.13;1036400;28;776;-68
2022/05/03 03:57:36;;;;;;;;;;;;;;;15.53;52.96;101701.81;1029236;28;894;-68
2022/05/03 03:58:27;;;;;;;;;;;;;;;15.52;53.01;101702.78;1028499;28;654;-67
2022/05/03 03:59:17;;;;;;;;;;;;;;;15.52;52.92;101704.59;1032567;28;643;-68
2022/05/03 04:00:07;;;;;;;;;;;;;;;15.51;52.87;101706.44;1032845;28;619;-68
2022/05/03 04:00:58;;;;;;;;;;;;;;;15.52;53.09;101707.28;1032771;28;646;-69
2022/05/03 04:01:49;;;;;;;;;;;;;;;15.51;53.21;101706.44;1032505;28;654;-68
2022/05/03 04:02:39;;;;;;;;;;;;;;;15.51;52.81;101706.44;1029509;28;637;-68
2022/05/03 04:03:30;;;;;;;;;;;;;;;15.50;53.13;101712.78;1028425;28;619;-67
2022/05/03 04:04:20;;;;;;;;;;;;;;;15.49;53.08;101713.75;1032399;28;630;-67
2022/05/03 04:05:10;;;;;;;;;;;;;;;15.48;53.00;101714.72;1032075;28;607;-66
2022/05/03 04:06:01;;;;;;;;;;;;;;;15.47;53.02;101714.81;1032203;28;634;-67
2022/05/03 04:06:51;;;;;;;;;;;;;;;15.45;52.89;101712.25;1033179;28;631;-66
2022/05/03 04:07:42;;;;;;;;;;;;;;;15.45;53.02;101714.91;1033044;28;678;-67
2022/05/03 04:08:33;;;;;;;;;;;;;;;15.44;52.89;101710.50;1036500;28;690;-67
2022/05/03 04:09:23;;;;;;;;;;;;;;;15.42;52.99;101707.06;1036642;28;649;-67
2022/05/03 04:10:13;;;;;;;;;;;;;;;15.44;53.00;101704.28;1036334;28;760;-67
2022/05/03 04:11:04;;;;;;;;;;;;;;;15.45;52.89;101711.38;1030472;28;791;-67
2022/05/03 04:11:54;;;;;;;;;;;;;;;15.44;53.12;101710.50;1029093;28;699;-67
2022/05/03 04:12:45;;;;;;;;;;;;;;;15.43;52.84;101706.13;1032882;28;670;-67
2022/05/03 04:13:36;;;;;;;;;;;;;;;15.43;52.89;101705.25;1032589;28;742;-67
2022/05/03 04:14:26;;;;;;;;;;;;;;;15.45;52.71;101708.69;1029392;28;725;-67
2022/05/03 04:15:16;;;;;;;;;;;;;;;15.44;53.10;101699.78;1028251;28;643;-67
2022/05/03 04:16:07;;;;;;;;;;;;;;;15.44;53.07;101699.78;1032670;28;627;-67
2022/05/03 04:16:57;;;;;;;;;;;;;;;15.44;53.07;101701.59;1033241;28;725;-67
2022/05/03 04:17:48;;;;;;;;;;;;;;;15.43;52.85;101702.56;1032697;28;667;-68
2022/05/03 04:18:44;;;;;;;;;;;;;;;15.42;52.99;101701.72;1029289;28;719;-67
2022/05/03 04:19:35;;;;;;;;;;;;;;;15.41;52.81;101700.00;1028369;28;826;-67
2022/05/03 04:20:25;;;;;;;;;;;;;;;15.41;53.07;101694.63;1028217;28;645;-67
2022/05/03 04:21:16;;;;;;;;;;;;;;;15.41;53.06;101705.34;1029326;28;701;-68
2022/05/03 04:22:12;;;;;;;;;;;;;;;15.41;53.12;101700.00;1033594;28;631;-68
2022/05/03 04:23:03;;;;;;;;;;;;;;;15.40;52.82;101703.69;1029745;28;622;-68
2022/05/03 04:23:53;;;;;;;;;;;;;;;15.40;52.78;101703.69;1029606;28;1960;-68
2022/05/03 04:24:43;;;;;;;;;;;;;;;15.39;53.01;101701.09;1032819;28;1570;-68
2022/05/03 04:25:34;;;;;;;;;;;;;;;15.39;53.04;101711.84;1033561;28;798;-68
2022/05/03 04:26:25;;;;;;;;;;;;;;;15.39;53.44;101707.31;1032573;28;647;-68
2022/05/03 04:27:16;;;;;;;;;;;;;;;15.40;52.75;101713.56;1037537;28;646;-68
2022/05/03 04:28:06;;;;;;;;;;;;;;;15.39;52.82;101706.47;1036352;28;698;-68
2022/05/03 04:28:57;;;;;;;;;;;;;;;15.38;52.66;101705.59;1032053;28;721;-68
2022/05/03 04:29:47;;;;;;;;;;;;;;;15.37;53.33;101703.88;1033658;28;706;-67
2022/05/03 04:30:38;;;;;;;;;;;;;;;15.37;53.16;101700.34;1037318;28;658;-67